createdAt,value
2023-04-26T00:00:59.456Z,94341.00
2023-04-26T00:01:59.507Z,94341.00
2023-04-26T00:02:59.621Z,94341.00
2023-04-26T00:03:59.812Z,94343.00
2023-04-26T00:04:59.859Z,94341.00
2023-04-26T00:05:59.749Z,94339.00
2023-04-26T00:06:59.783Z,94341.00
2023-04-26T00:07:59.842Z,94339.00
2023-04-26T00:08:59.881Z,94339.00
2023-04-26T00:09:59.949Z,94339.00
2023-04-26T00:10:59.999Z,94339.00
2023-04-26T00:12:00.045Z,94341.00
2023-04-26T00:13:00.132Z,94343.00
2023-04-26T00:14:00.161Z,94343.00
2023-04-26T00:15:00.218Z,94341.00
2023-04-26T00:16:00.365Z,94345.00
2023-04-26T00:17:00.288Z,94341.00
2023-04-26T00:18:00.441Z,94341.00
2023-04-26T00:19:00.379Z,94341.00
2023-04-26T00:20:00.414Z,94339.00
2023-04-26T00:21:00.484Z,94337.00
2023-04-26T00:22:00.510Z,94335.00
2023-04-26T00:23:00.577Z,94335.00
2023-04-26T00:24:00.659Z,94335.00
2023-04-26T00:25:00.683Z,94333.00
2023-04-26T00:26:00.724Z,94339.00
2023-04-26T00:27:00.774Z,94337.00
2023-04-26T00:28:00.863Z,94337.00
2023-04-26T00:29:00.903Z,94337.00
2023-04-26T00:30:00.934Z,94337.00
2023-04-26T00:31:00.946Z,94339.00
2023-04-26T00:32:01.133Z,94339.00
2023-04-26T00:33:01.111Z,94337.00
2023-04-26T00:34:01.111Z,94341.00
2023-04-26T00:35:01.178Z,94337.00
2023-04-26T00:36:01.213Z,94335.00
2023-04-26T00:37:01.272Z,94335.00
2023-04-26T00:38:01.309Z,94335.00
2023-04-26T00:39:01.354Z,94333.00
2023-04-26T00:40:01.451Z,94330.00
2023-04-26T00:41:01.472Z,94328.00
2023-04-26T00:42:01.528Z,94326.00
2023-04-26T00:43:01.559Z,94326.00
2023-04-26T00:44:01.682Z,94322.00
2023-04-26T00:45:01.681Z,94322.00
2023-04-26T00:46:01.770Z,94320.00
2023-04-26T00:47:01.769Z,94322.00
2023-04-26T00:48:01.950Z,94322.00
2023-04-26T00:49:01.885Z,94320.00
2023-04-26T00:50:01.948Z,94320.00
2023-04-26T00:51:02.002Z,94320.00
2023-04-26T00:52:02.064Z,94320.00
2023-04-26T00:53:02.128Z,94320.00
2023-04-26T00:54:02.169Z,94320.00
2023-04-26T00:55:02.199Z,94320.00
2023-04-26T00:56:02.282Z,94320.00
2023-04-26T00:57:02.322Z,94322.00
2023-04-26T00:58:02.381Z,94316.00
2023-04-26T00:59:02.441Z,94320.00
2023-04-26T01:00:02.501Z,94320.00
